Time;durP1;ratioP1;P1;durP2;ratioP2;P2;SDS_P1;SDS_P2;PMS_P1;PMS_P2;Temp;Humidity;BMP_temperature;BMP_pressure;BME280_temperature;BME280_humidity;BME280_pressure;Samples;Min_cycle;Max_cycle;Signal;HPM_P1;HPM_P2
2022/07/19 00:02:03;;;;;;;1.23;1.10;;;26.90;39.30;;;;;;5014153;28;20065;-54
2022/07/19 00:04:30;;;;;;;1.70;1.00;;;26.90;39.30;;;;;;5016047;28;20042;-51
2022/07/19 00:06:55;;;;;;;1.15;0.80;;;26.80;39.20;;;;;;5016495;28;20073;-55
2022/07/19 00:09:23;;;;;;;2.25;1.02;;;26.80;39.20;;;;;;5016527;28;20022;-54
2022/07/19 00:11:49;;;;;;;1.75;1.10;;;26.80;39.20;;;;;;5013171;28;20030;-53
2022/07/19 00:14:15;;;;;;;1.27;0.93;;;26.80;39.20;;;;;;5015245;28;20054;-55
2022/07/19 00:16:41;;;;;;;1.73;1.13;;;26.80;39.30;;;;;;5014951;28;20120;-55
2022/07/19 00:19:07;;;;;;;1.13;0.85;;;26.80;39.30;;;;;;5015846;28;20422;-52
2022/07/19 00:21:33;;;;;;;2.78;1.00;;;26.80;39.30;;;;;;5015422;28;20160;-50
2022/07/19 00:24:00;;;;;;;1.30;1.00;;;26.80;39.30;;;;;;5015583;28;20116;-50
2022/07/19 00:26:27;;;;;;;1.38;1.08;;;26.80;39.30;;;;;;5013977;28;20100;-56
2022/07/19 00:28:54;;;;;;;1.63;1.10;;;26.80;39.30;;;;;;5014595;28;20385;-51
2022/07/19 00:31:24;;;;;;;1.33;1.02;;;26.80;39.40;;;;;;5014486;28;20030;-54
2022/07/19 00:33:51;;;;;;;1.02;0.82;;;26.80;39.50;;;;;;5015876;28;20034;-48
2022/07/19 00:36:18;;;;;;;1.15;1.00;;;26.80;39.50;;;;;;5015649;28;20475;-49
2022/07/19 00:38:44;;;;;;;1.10;1.00;;;26.80;39.60;;;;;;5012495;28;20100;-55
2022/07/19 00:41:10;;;;;;;1.67;1.05;;;26.80;39.60;;;;;;5015205;28;20033;-51
2022/07/19 00:43:39;;;;;;;1.33;1.00;;;26.80;39.60;;;;;;5015985;28;20418;-52
2022/07/19 00:46:10;;;;;;;1.10;0.85;;;26.70;39.60;;;;;;5015817;28;20444;-54
2022/07/19 00:48:37;;;;;;;1.02;0.93;;;26.80;39.70;;;;;;5014863;28;20030;-56
2022/07/19 00:51:03;;;;;;;1.25;0.95;;;26.80;39.80;;;;;;5013328;28;20041;-53
2022/07/19 00:53:30;;;;;;;1.48;1.10;;;26.70;39.70;;;;;;5014446;28;20069;-55
2022/07/19 00:55:58;;;;;;;1.92;1.10;;;26.80;39.80;;;;;;5015411;28;20497;-51
2022/07/19 00:58:25;;;;;;;1.30;1.00;;;26.70;39.80;;;;;;5014726;28;20345;-51
2022/07/19 01:00:51;;;;;;;1.17;1.08;;;26.70;39.80;;;;;;5013683;28;20030;-51
2022/07/19 01:03:18;;;;;;;1.27;1.17;;;26.70;39.80;;;;;;5013836;28;20129;-50
2022/07/19 01:05:46;;;;;;;1.48;1.08;;;26.70;39.80;;;;;;5015629;28;20026;-54
2022/07/19 01:08:12;;;;;;;1.48;1.20;;;26.70;39.80;;;;;;5014179;28;20034;-53
2022/07/19 01:10:38;;;;;;;1.10;1.00;;;26.70;39.90;;;;;;5014853;28;20065;-54
2022/07/19 01:13:04;;;;;;;1.95;1.05;;;26.70;39.90;;;;;;5009953;28;20054;-54
2022/07/19 01:15:30;;;;;;;1.77;1.17;;;26.70;39.90;;;;;;5013675;28;20105;-54
2022/07/19 01:17:56;;;;;;;1.35;0.90;;;26.70;40.00;;;;;;5014677;28;20346;-54
2022/07/19 01:20:23;;;;;;;1.63;1.05;;;26.70;40.00;;;;;;5015325;28;20429;-54
2022/07/19 01:22:49;;;;;;;2.33;1.25;;;26.70;40.00;;;;;;5015234;28;20041;-53
2022/07/19 01:25:16;;;;;;;1.25;1.08;;;26.60;40.00;;;;;;5013612;28;20046;-52
2022/07/19 01:27:44;;;;;;;1.80;1.20;;;26.70;40.10;;;;;;5014074;28;20041;-54
2022/07/19 01:30:24;;;;;;;1.40;1.00;;;26.60;40.10;;;;;;5019786;28;20057;-53
2022/07/19 01:32:51;;;;;;;1.95;1.25;;;26.60;40.20;;;;;;5018733;28;20065;-50
2022/07/19 01:35:17;;;;;;;1.73;0.90;;;26.60;40.30;;;;;;5004906;28;20350;-55
2022/07/19 01:37:43;;;;;;;1.80;0.90;;;26.60;40.30;;;;;;5006888;28;20068;-52
2022/07/19 01:40:12;;;;;;;2.00;1.10;;;26.70;40.40;;;;;;5017965;28;20029;-53
2022/07/19 01:42:39;;;;;;;1.33;1.00;;;26.60;40.30;;;;;;5017794;28;20444;-54
2022/07/19 01:45:06;;;;;;;1.30;1.10;;;26.60;40.30;;;;;;5018307;28;20463;-49
2022/07/19 01:47:33;;;;;;;1.40;1.00;;;26.70;40.40;;;;;;5018114;28;20475;-53
2022/07/19 01:49:58;;;;;;;1.60;0.95;;;26.60;40.40;;;;;;5016118;28;20104;-52
2022/07/19 01:52:24;;;;;;;1.13;0.90;;;26.60;40.30;;;;;;5018296;28;20041;-53
2022/07/19 01:54:50;;;;;;;0.98;0.88;;;26.60;40.30;;;;;;5017734;28;20033;-51
2022/07/19 01:57:16;;;;;;;1.55;1.02;;;26.60;40.30;;;;;;5018188;28;20072;-55
2022/07/19 01:59:42;;;;;;;0.88;0.82;;;26.70;40.30;;;;;;5017767;28;20444;-52
2022/07/19 02:02:07;;;;;;;1.15;0.80;;;26.70;40.40;;;;;;5013655;28;20041;-57
2022/07/19 02:04:34;;;;;;;1.30;1.20;;;26.70;40.30;;;;;;5018374;28;20080;-54
2022/07/19 02:06:59;;;;;;;1.30;1.00;;;26.70;40.30;;;;;;5018361;28;20120;-47
2022/07/19 02:09:25;;;;;;;1.33;0.95;;;26.70;40.30;;;;;;5017539;28;20105;-53
2022/07/19 02:11:51;;;;;;;1.40;0.88;;;26.70;40.30;;;;;;5016264;28;20471;-51
2022/07/19 02:14:17;;;;;;;1.38;0.88;;;26.70;40.30;;;;;;5017881;28;20115;-57
2022/07/19 02:16:44;;;;;;;1.83;1.13;;;26.70;40.30;;;;;;5017624;28;20476;-55
2022/07/19 02:19:10;;;;;;;1.42;1.00;;;26.70;40.20;;;;;;5018309;28;20077;-51
2022/07/19 02:21:37;;;;;;;1.27;1.02;;;26.70;40.20;;;;;;5016009;28;20034;-53
2022/07/19 02:24:05;;;;;;;2.10;1.15;;;26.70;40.20;;;;;;5018205;28;20065;-55
2022/07/19 02:26:31;;;;;;;1.42;1.00;;;26.70;40.20;;;;;;5016822;28;20109;-51
2022/07/19 02:28:57;;;;;;;1.13;0.90;;;26.70;40.10;;;;;;5018262;28;20025;-52
2022/07/19 02:31:23;;;;;;;1.67;1.08;;;26.70;40.10;;;;;;5018620;28;20052;-51
2022/07/19 02:33:49;;;;;;;1.50;1.10;;;26.70;40.10;;;;;;5014933;28;20093;-51
2022/07/19 02:36:15;;;;;;;1.52;1.13;;;26.70;40.00;;;;;;5018081;28;20034;-56
2022/07/19 02:38:41;;;;;;;1.38;1.08;;;26.70;40.00;;;;;;5017018;28;20048;-54
2022/07/19 02:41:06;;;;;;;1.33;1.23;;;26.70;40.00;;;;;;5016450;28;20449;-50
2022/07/19 02:43:32;;;;;;;1.20;1.00;;;26.60;39.90;;;;;;5017289;28;20083;-54
2022/07/19 02:45:58;;;;;;;1.90;1.10;;;26.60;39.90;;;;;;5015919;28;20030;-50
2022/07/19 02:48:24;;;;;;;1.65;1.10;;;26.60;39.80;;;;;;5018056;28;20026;-49
2022/07/19 02:50:50;;;;;;;1.63;1.08;;;26.60;39.80;;;;;;5016817;28;20069;-51
2022/07/19 02:53:15;;;;;;;1.35;1.13;;;26.60;39.80;;;;;;5017833;28;20049;-53
2022/07/19 02:55:41;;;;;;;1.58;0.95;;;26.60;39.80;;;;;;5016707;28;20046;-49
2022/07/19 02:58:07;;;;;;;1.23;0.98;;;26.60;39.80;;;;;;5016972;28;20026;-57
2022/07/19 03:00:33;;;;;;;1.20;0.93;;;26.60;39.70;;;;;;5017223;28;20038;-52
2022/07/19 03:03:43;;;;;;;1.08;0.88;;;26.60;39.70;;;;;;5016760;28;20100;-53
2022/07/19 03:05:45;;;;;;;1.30;0.93;;;26.60;39.70;;;;;;5017140;28;20038;-53
2022/07/19 03:08:11;;;;;;;1.48;0.90;;;26.60;39.70;;;;;;5016912;28;20343;-49
2022/07/19 03:10:37;;;;;;;0.88;0.75;;;26.60;39.70;;;;;;5012692;28;20037;-50
2022/07/19 03:13:03;;;;;;;2.50;1.20;;;26.60;39.60;;;;;;5016926;28;20053;-51
2022/07/19 03:15:29;;;;;;;1.05;0.90;;;26.60;39.60;;;;;;5016787;28;20123;-54
2022/07/19 03:17:55;;;;;;;1.80;1.05;;;26.60;39.60;;;;;;5016948;28;20037;-53
2022/07/19 03:20:21;;;;;;;1.27;0.90;;;26.60;39.60;;;;;;5016493;28;20033;-55
2022/07/19 03:22:47;;;;;;;1.02;0.90;;;26.60;39.60;;;;;;5015351;28;20120;-51
2022/07/19 03:25:13;;;;;;;1.13;0.98;;;26.60;39.60;;;;;;5014937;28;20132;-54
2022/07/19 03:27:39;;;;;;;1.52;1.02;;;26.60;39.50;;;;;;5015979;28;20088;-52
2022/07/19 03:30:06;;;;;;;1.35;1.00;;;26.60;39.60;;;;;;5016535;28;20036;-51
2022/07/19 03:32:32;;;;;;;1.20;0.90;;;26.60;39.50;;;;;;5016188;28;20038;-53
2022/07/19 03:34:58;;;;;;;1.42;1.00;;;26.60;39.50;;;;;;5015180;28;20470;-51
2022/07/19 03:37:24;;;;;;;1.27;1.17;;;26.60;39.60;;;;;;5016775;28;20038;-53
2022/07/19 03:39:49;;;;;;;1.38;1.10;;;26.60;39.60;;;;;;5007483;28;20480;-51
2022/07/19 03:42:15;;;;;;;1.33;1.10;;;26.60;39.60;;;;;;5011573;28;20034;-49
2022/07/19 03:44:41;;;;;;;1.05;0.90;;;26.60;39.50;;;;;;5014945;28;20417;-52
2022/07/19 03:47:07;;;;;;;1.10;1.00;;;26.60;39.50;;;;;;5016729;28;20065;-53
2022/07/19 03:49:33;;;;;;;1.27;0.90;;;26.60;39.50;;;;;;5016303;28;20054;-56
2022/07/19 03:51:58;;;;;;;1.00;0.90;;;26.60;39.50;;;;;;5016411;28;20037;-53
2022/07/19 03:54:24;;;;;;;0.70;0.65;;;26.50;39.30;;;;;;5013232;28;20050;-54
2022/07/19 03:56:50;;;;;;;1.58;0.90;;;26.50;39.40;;;;;;5016694;28;20030;-55
2022/07/19 03:59:16;;;;;;;1.65;1.00;;;26.50;39.30;;;;;;5015896;28;20032;-57
2022/07/19 04:01:42;;;;;;;1.30;1.00;;;26.50;39.30;;;;;;5015978;28;20037;-51
2022/07/19 04:04:08;;;;;;;1.50;1.00;;;26.50;39.30;;;;;;5016100;28;20480;-54
2022/07/19 04:06:34;;;;;;;0.90;0.80;;;26.50;39.20;;;;;;5014623;28;20445;-55
2022/07/19 04:08:59;;;;;;;1.30;0.90;;;26.50;39.20;;;;;;4997375;28;20029;-54
2022/07/19 04:11:25;;;;;;;1.35;0.85;;;26.50;39.20;;;;;;5016310;28;20038;-47
2022/07/19 04:13:51;;;;;;;1.48;1.00;;;26.50;39.20;;;;;;5015730;28;20037;-53
2022/07/19 04:16:17;;;;;;;1.10;0.73;;;26.50;39.20;;;;;;5015837;28;20429;-54
2022/07/19 04:18:42;;;;;;;1.40;1.08;;;26.50;39.20;;;;;;5013590;28;20030;-52
2022/07/19 04:21:08;;;;;;;1.00;0.77;;;26.50;39.20;;;;;;5013993;28;20041;-50
2022/07/19 04:23:34;;;;;;;1.55;0.90;;;26.50;39.10;;;;;;5015979;28;20034;-51
2022/07/19 04:26:00;;;;;;;1.10;0.82;;;26.50;39.20;;;;;;5016299;28;20468;-50
2022/07/19 04:28:26;;;;;;;1.38;1.00;;;26.50;39.30;;;;;;5015696;28;20097;-54
2022/07/19 04:30:51;;;;;;;0.90;0.80;;;26.50;39.20;;;;;;5014227;28;20382;-52
2022/07/19 04:33:18;;;;;;;1.08;0.85;;;26.50;39.20;;;;;;5015558;28;20357;-52
2022/07/19 04:35:45;;;;;;;1.00;0.90;;;26.50;39.20;;;;;;5014662;28;20109;-51
2022/07/19 04:38:11;;;;;;;1.25;1.10;;;26.50;39.10;;;;;;5015048;28;20095;-48
2022/07/19 04:40:38;;;;;;;1.50;1.00;;;26.50;39.20;;;;;;5015822;28;20030;-57
2022/07/19 04:43:04;;;;;;;2.70;1.00;;;26.50;39.20;;;;;;5014204;28;20030;-53
2022/07/19 04:45:29;;;;;;;0.98;0.85;;;26.50;39.30;;;;;;5015465;28;20045;-53
2022/07/19 04:47:55;;;;;;;1.17;0.90;;;26.50;39.30;;;;;;5014347;28;20373;-51
2022/07/19 04:50:21;;;;;;;1.08;0.90;;;26.50;39.40;;;;;;5013908;28;20049;-55
2022/07/19 04:52:47;;;;;;;1.40;1.00;;;26.50;39.40;;;;;;5014603;28;20030;-48
2022/07/19 04:55:13;;;;;;;2.15;0.98;;;26.50;39.40;;;;;;5014476;28;20132;-53
2022/07/19 04:57:39;;;;;;;1.83;0.98;;;26.50;39.50;;;;;;5015312;28;20132;-55
2022/07/19 05:00:09;;;;;;;1.40;1.00;;;26.50;39.50;;;;;;5015810;28;20084;-50
2022/07/19 05:02:35;;;;;;;1.25;0.98;;;26.50;39.60;;;;;;5015171;28;20022;-52
2022/07/19 05:05:02;;;;;;;1.70;1.05;;;26.50;39.60;;;;;;5012280;28;20037;-52
2022/07/19 05:07:28;;;;;;;1.40;0.93;;;26.50;39.60;;;;;;5012732;28;20463;-52
2022/07/19 05:09:54;;;;;;;1.40;1.00;;;26.50;39.60;;;;;;5013632;28;20042;-48
2022/07/19 05:12:19;;;;;;;1.48;1.00;;;26.60;39.70;;;;;;5015387;28;20030;-52
2022/07/19 05:14:45;;;;;;;1.00;0.90;;;26.50;39.70;;;;;;5014625;28;20088;-52
2022/07/19 05:17:11;;;;;;;1.50;1.00;;;26.50;39.60;;;;;;5013056;28;20034;-51
2022/07/19 05:19:37;;;;;;;1.55;0.93;;;26.50;39.70;;;;;;5013660;28;20033;-53
2022/07/19 05:22:03;;;;;;;1.40;1.00;;;26.60;39.70;;;;;;5015144;28;20030;-57
2022/07/19 05:24:29;;;;;;;1.63;1.30;;;26.60;39.70;;;;;;5015435;28;20037;-50
2022/07/19 05:26:55;;;;;;;1.98;1.00;;;26.60;39.80;;;;;;5013733;28;20026;-56
2022/07/19 05:29:20;;;;;;;1.30;1.05;;;26.60;39.80;;;;;;5015324;28;20091;-52
2022/07/19 05:31:46;;;;;;;1.92;0.90;;;26.60;39.80;;;;;;5015081;28;20437;-51
2022/07/19 05:34:12;;;;;;;0.82;0.80;;;26.60;39.80;;;;;;5014284;28;20133;-51
2022/07/19 05:36:39;;;;;;;2.47;0.90;;;26.60;39.90;;;;;;5014312;28;20040;-54
2022/07/19 05:39:04;;;;;;;3.28;0.93;;;26.60;39.90;;;;;;5013676;28;20353;-55
2022/07/19 05:41:30;;;;;;;1.45;0.90;;;26.60;39.90;;;;;;5014064;28;20026;-56
2022/07/19 05:43:56;;;;;;;1.17;1.00;;;26.60;39.90;;;;;;5013936;28;20037;-57
2022/07/19 05:46:22;;;;;;;2.78;1.38;;;26.50;39.80;;;;;;5013873;28;20037;-48
2022/07/19 05:48:47;;;;;;;1.75;1.23;;;26.60;39.90;;;;;;5013311;28;20449;-56
2022/07/19 05:51:14;;;;;;;3.85;1.10;;;26.60;40.00;;;;;;5013098;28;20038;-54
2022/07/19 05:53:40;;;;;;;1.10;0.80;;;26.60;40.60;;;;;;5014742;28;20073;-56
2022/07/19 05:56:07;;;;;;;2.95;1.02;;;26.60;40.00;;;;;;4996229;28;20034;-50
2022/07/19 05:58:33;;;;;;;2.55;1.13;;;26.60;40.10;;;;;;5010345;28;20076;-54
2022/07/19 06:03:47;;;;;;;1.30;0.98;;;26.60;40.10;;;;;;5004008;28;20038;-53
2022/07/19 06:06:13;;;;;;;1.35;0.88;;;26.60;40.10;;;;;;5012168;28;20081;-55
2022/07/19 06:08:40;;;;;;;1.58;1.13;;;26.60;40.20;;;;;;5013120;28;20034;-52
2022/07/19 06:11:05;;;;;;;1.75;1.23;;;26.60;40.30;;;;;;5014000;28;20109;-52
2022/07/19 06:13:31;;;;;;;0.85;0.70;;;26.60;40.30;;;;;;5013561;28;20125;-52
2022/07/19 06:15:57;;;;;;;1.63;1.02;;;26.60;40.40;;;;;;4997429;28;20117;-54
2022/07/19 06:18:23;;;;;;;1.17;1.00;;;26.60;40.40;;;;;;5016090;28;20429;-51
2022/07/19 06:20:49;;;;;;;1.88;1.13;;;26.50;40.40;;;;;;5017840;28;20023;-51
2022/07/19 06:23:15;;;;;;;1.70;1.00;;;26.50;40.50;;;;;;5016732;28;20457;-51
2022/07/19 06:25:40;;;;;;;1.25;1.08;;;26.50;40.60;;;;;;5017959;28;20030;-50
2022/07/19 06:28:06;;;;;;;2.05;1.08;;;26.50;40.60;;;;;;5017616;28;20065;-51
2022/07/19 06:30:32;;;;;;;1.33;1.02;;;26.50;40.70;;;;;;5014650;28;20148;-53
2022/07/19 06:32:58;;;;;;;1.02;0.90;;;26.50;40.70;;;;;;4998732;28;20468;-52
2022/07/19 06:35:24;;;;;;;1.35;0.95;;;26.50;40.80;;;;;;5010720;28;20124;-52
2022/07/19 06:37:50;;;;;;;1.50;1.02;;;26.50;40.80;;;;;;5016785;28;20064;-53
2022/07/19 06:40:16;;;;;;;1.73;0.80;;;26.50;40.80;;;;;;5017159;28;20030;-54
2022/07/19 06:42:41;;;;;;;1.23;1.00;;;26.50;40.90;;;;;;5018139;28;20113;-52
2022/07/19 06:45:08;;;;;;;2.17;1.10;;;26.50;40.90;;;;;;5016866;28;20033;-55
2022/07/19 06:47:33;;;;;;;1.60;1.30;;;26.50;40.80;;;;;;5017896;28;20459;-51
2022/07/19 06:49:59;;;;;;;1.90;1.27;;;26.50;40.80;;;;;;5016630;28;20132;-53
2022/07/19 06:52:25;;;;;;;2.00;1.20;;;26.50;41.40;;;;;;5015036;28;20394;-48
2022/07/19 06:54:51;;;;;;;1.23;1.00;;;26.60;40.80;;;;;;5015580;28;20062;-48
2022/07/19 06:57:17;;;;;;;3.45;1.40;;;26.60;40.70;;;;;;5014575;28;20037;-53
2022/07/19 06:59:43;;;;;;;1.30;1.20;;;26.60;40.70;;;;;;5015836;28;20029;-53
2022/07/19 07:02:09;;;;;;;1.30;1.10;;;26.60;40.70;;;;;;5015034;28;20033;-52
2022/07/19 07:04:35;;;;;;;1.70;0.98;;;26.60;40.70;;;;;;5014675;28;20053;-50
2022/07/19 07:07:01;;;;;;;2.50;1.67;;;26.60;40.70;;;;;;5016043;28;20033;-51
2022/07/19 07:09:26;;;;;;;2.45;1.20;;;26.60;40.70;;;;;;5014935;28;20040;-55
2022/07/19 07:11:52;;;;;;;2.08;1.20;;;26.60;40.70;;;;;;5015888;28;20072;-54
2022/07/19 07:14:18;;;;;;;5.20;1.60;;;26.60;40.70;;;;;;5016534;28;20091;-49
2022/07/19 07:16:44;;;;;;;2.03;1.23;;;26.60;40.70;;;;;;5017016;28;20042;-50
2022/07/19 07:19:10;;;;;;;1.60;1.23;;;26.60;40.70;;;;;;5016551;28;20025;-54
2022/07/19 07:21:36;;;;;;;1.90;1.35;;;26.60;40.70;;;;;;5016769;28;20137;-55
2022/07/19 07:24:02;;;;;;;1.52;1.08;;;26.60;40.70;;;;;;5014955;28;20034;-55
2022/07/19 07:26:29;;;;;;;2.03;1.25;;;26.60;40.70;;;;;;5015900;28;20457;-55
2022/07/19 07:28:55;;;;;;;1.35;1.10;;;26.70;40.80;;;;;;5016652;28;20120;-51
2022/07/19 07:31:21;;;;;;;1.10;1.00;;;26.60;40.70;;;;;;5017371;28;20065;-51
2022/07/19 07:33:47;;;;;;;1.55;1.13;;;26.70;40.80;;;;;;5016075;28;20445;-51
2022/07/19 07:36:13;;;;;;;1.70;1.08;;;26.70;40.80;;;;;;5015495;28;20065;-54
2022/07/19 07:38:38;;;;;;;3.80;1.50;;;26.70;40.80;;;;;;5015479;28;20456;-50
2022/07/19 07:41:05;;;;;;;2.08;1.25;;;26.60;40.70;;;;;;5016377;28;20397;-54
2022/07/19 07:43:31;;;;;;;1.67;1.33;;;26.70;40.80;;;;;;5016135;28;20026;-55
2022/07/19 07:45:56;;;;;;;3.05;1.08;;;26.70;40.80;;;;;;5016285;28;20121;-51
2022/07/19 07:48:22;;;;;;;2.38;1.45;;;26.70;40.80;;;;;;5015673;28;20124;-53
2022/07/19 07:50:48;;;;;;;1.95;1.23;;;26.70;40.90;;;;;;5016517;28;20052;-56
2022/07/19 07:53:14;;;;;;;2.70;1.20;;;26.70;40.90;;;;;;5015600;28;20038;-51
2022/07/19 07:55:41;;;;;;;2.80;1.30;;;26.70;40.90;;;;;;5016090;28;20041;-55
2022/07/19 07:58:09;;;;;;;1.33;1.20;;;26.70;40.90;;;;;;5016033;28;20437;-47
2022/07/19 08:00:35;;;;;;;2.22;1.42;;;26.80;41.00;;;;;;5016175;28;20373;-49
2022/07/19 08:03:02;;;;;;;2.78;1.40;;;26.70;41.00;;;;;;5015767;28;20092;-57
2022/07/19 08:05:28;;;;;;;1.60;1.23;;;26.70;41.00;;;;;;5015158;28;20358;-54
2022/07/19 08:07:54;;;;;;;2.03;1.20;;;26.70;41.00;;;;;;5015418;28;20038;-49
2022/07/19 08:10:22;;;;;;;1.95;1.30;;;26.80;41.10;;;;;;5015718;28;20026;-53
2022/07/19 08:12:48;;;;;;;1.85;1.10;;;26.80;41.10;;;;;;5013577;28;20044;-52
2022/07/19 08:15:13;;;;;;;2.42;1.10;;;26.80;41.10;;;;;;5013153;28;20049;-52
2022/07/19 08:17:39;;;;;;;2.63;1.30;;;26.80;41.20;;;;;;5013669;28;20033;-51
2022/07/19 08:20:06;;;;;;;1.42;1.20;;;26.70;41.20;;;;;;5012837;28;20568;-52
2022/07/19 08:22:32;;;;;;;2.80;1.40;;;26.80;41.20;;;;;;4995787;28;20467;-56
2022/07/19 08:24:57;;;;;;;1.98;1.27;;;26.80;41.30;;;;;;5005409;28;20088;-50
2022/07/19 08:27:23;;;;;;;1.75;1.17;;;26.80;41.30;;;;;;5014052;28;20061;-50
2022/07/19 08:29:49;;;;;;;2.17;1.08;;;26.80;41.30;;;;;;5011645;28;20127;-48
2022/07/19 08:32:15;;;;;;;2.30;1.17;;;26.80;41.30;;;;;;5013803;28;20037;-53
2022/07/19 08:34:41;;;;;;;2.17;1.10;;;26.80;41.30;;;;;;5014375;28;20481;-50
2022/07/19 08:37:07;;;;;;;4.45;1.17;;;26.80;41.30;;;;;;5014693;28;20076;-55
2022/07/19 08:39:33;;;;;;;2.10;1.35;;;26.80;41.30;;;;;;5015192;28;20330;-51
2022/07/19 08:41:58;;;;;;;1.70;1.08;;;26.80;41.30;;;;;;5015494;28;20026;-55
2022/07/19 08:44:26;;;;;;;1.20;0.80;;;26.80;41.30;;;;;;5015446;28;20026;-54
2022/07/19 08:46:53;;;;;;;1.33;0.95;;;26.80;41.30;;;;;;5015381;28;20054;-51
2022/07/19 08:49:19;;;;;;;1.33;1.00;;;26.80;41.30;;;;;;5013404;28;20053;-49
2022/07/19 08:51:48;;;;;;;2.80;1.10;;;26.80;41.20;;;;;;5015212;28;20413;-50
2022/07/19 08:54:14;;;;;;;1.83;1.10;;;26.80;41.20;;;;;;5000178;28;20041;-53
2022/07/19 08:59:24;;;;;;;2.88;1.33;;;26.80;41.10;;;;;;5010324;28;20026;-55
2022/07/19 09:01:51;;;;;;;1.58;0.85;;;26.80;41.10;;;;;;5013157;28;20497;-52
2022/07/19 09:04:19;;;;;;;1.23;0.93;;;26.80;41.00;;;;;;5008728;28;20058;-54
2022/07/19 09:06:51;;;;;;;2.75;1.30;;;26.80;40.90;;;;;;4995385;28;20425;-58
2022/07/19 09:09:20;;;;;;;1.48;0.88;;;26.80;40.90;;;;;;5012517;28;20133;-55
2022/07/19 09:11:48;;;;;;;1.67;1.00;;;26.80;40.90;;;;;;5013890;28;20368;-53
2022/07/19 09:14:21;;;;;;;1.60;1.08;;;26.80;40.80;;;;;;5014301;28;20045;-54
2022/07/19 09:17:12;;;;;;;1.55;0.90;;;26.80;40.80;;;;;;5014362;28;20034;-53
2022/07/19 09:19:41;;;;;;;1.10;0.88;;;26.80;40.70;;;;;;5013181;28;20028;-51
2022/07/19 09:22:09;;;;;;;0.90;0.80;;;26.80;40.70;;;;;;5015239;28;20084;-48
2022/07/19 09:24:46;;;;;;;1.80;1.00;;;26.80;40.70;;;;;;5013475;28;20396;-49
2022/07/19 09:27:25;;;;;;;0.85;0.80;;;26.80;40.60;;;;;;5013927;28;20034;-56
2022/07/19 09:29:56;;;;;;;1.33;0.88;;;26.80;40.60;;;;;;5014018;28;20110;-51
2022/07/19 09:32:24;;;;;;;1.42;0.82;;;26.80;40.60;;;;;;5012820;28;20052;-57
2022/07/19 09:34:59;;;;;;;1.13;0.80;;;26.90;40.60;;;;;;5015271;28;20034;-50
2022/07/19 09:37:26;;;;;;;2.63;1.20;;;26.90;40.60;;;;;;5015205;28;20380;-53
2022/07/19 09:39:56;;;;;;;1.23;1.13;;;26.90;40.70;;;;;;5013550;28;20025;-53
2022/07/19 09:42:34;;;;;;;1.52;0.88;;;26.90;40.80;;;;;;5014898;28;20065;-52
2022/07/19 09:45:04;;;;;;;2.65;1.20;;;26.90;40.90;;;;;;5013847;28;20334;-51
2022/07/19 09:47:38;;;;;;;1.67;1.20;;;26.90;40.90;;;;;;5013654;28;20029;-52
2022/07/19 09:50:10;;;;;;;1.98;0.98;;;26.90;41.00;;;;;;5023150;28;20057;-56
2022/07/19 09:52:36;;;;;;;1.20;1.10;;;26.90;41.00;;;;;;5019829;28;20229;-50
2022/07/19 09:55:04;;;;;;;1.77;0.98;;;26.90;41.00;;;;;;5016457;28;20038;-52
2022/07/19 09:57:54;;;;;;;2.03;1.15;;;26.90;40.90;;;;;;5017799;28;20026;-51
2022/07/19 10:00:22;;;;;;;1.27;0.85;;;26.90;40.90;;;;;;5013507;28;20042;-51
2022/07/19 10:02:53;;;;;;;3.10;1.10;;;26.90;40.90;;;;;;5019379;28;20369;-55
2022/07/19 10:05:20;;;;;;;1.42;1.10;;;26.90;40.90;;;;;;5018602;28;20053;-53
2022/07/19 10:07:46;;;;;;;2.15;1.05;;;26.90;40.90;;;;;;5013099;28;20053;-52
2022/07/19 10:10:16;;;;;;;1.90;1.17;;;27.00;41.00;;;;;;5013424;28;20026;-51
2022/07/19 10:12:44;;;;;;;1.27;0.93;;;27.00;41.00;;;;;;5013616;28;20030;-52
2022/07/19 10:15:20;;;;;;;1.50;0.90;;;27.00;41.00;;;;;;5011160;28;20049;-55
2022/07/19 10:18:11;;;;;;;1.70;1.15;;;27.00;41.00;;;;;;5016236;28;20026;-49
2022/07/19 10:20:39;;;;;;;2.30;0.90;;;27.00;41.00;;;;;;5015565;28;20046;-56
2022/07/19 10:23:05;;;;;;;1.40;0.80;;;27.10;41.00;;;;;;5016837;28;20033;-51
2022/07/19 10:25:45;;;;;;;1.52;0.90;;;27.10;41.00;;;;;;5008159;28;20054;-52
2022/07/19 10:28:32;;;;;;;2.47;1.10;;;27.20;41.10;;;;;;5016230;28;20038;-55
2022/07/19 10:30:59;;;;;;;1.92;1.05;;;27.20;41.00;;;;;;5006420;28;20129;-56
2022/07/19 10:33:32;;;;;;;1.02;0.70;;;27.20;41.00;;;;;;5013398;28;20468;-56
2022/07/19 10:36:18;;;;;;;1.50;0.95;;;27.20;41.00;;;;;;5015075;28;20025;-53
2022/07/19 10:39:21;;;;;;;1.70;1.00;;;27.20;41.00;;;;;;5015534;28;20091;-55
2022/07/19 10:42:06;;;;;;;3.42;0.90;;;27.20;40.90;;;;;;5011032;28;20034;-56
2022/07/19 10:44:33;;;;;;;2.55;0.90;;;27.30;40.90;;;;;;5016359;28;20030;-56
2022/07/19 10:47:02;;;;;;;1.42;1.00;;;27.30;40.90;;;;;;5018803;28;20026;-52
2022/07/19 10:49:45;;;;;;;1.67;1.08;;;27.40;41.00;;;;;;5022640;28;20022;-58
2022/07/19 10:52:28;;;;;;;1.73;1.08;;;27.40;41.00;;;;;;5014831;28;20053;-53
2022/07/19 10:55:34;;;;;;;1.33;0.88;;;27.40;40.90;;;;;;5016363;28;20052;-53
2022/07/19 10:58:06;;;;;;;1.30;0.80;;;27.50;41.00;;;;;;4998003;28;20128;-54
2022/07/19 11:00:52;;;;;;;1.55;0.88;;;27.50;41.00;;;;;;5014987;28;20049;-54
2022/07/19 11:03:21;;;;;;;1.65;0.85;;;27.50;40.90;;;;;;5015971;28;20103;-56
2022/07/19 11:05:58;;;;;;;2.05;1.08;;;27.50;40.80;;;;;;5012231;28;20404;-56
2022/07/19 11:08:41;;;;;;;1.40;0.93;;;27.60;40.80;;;;;;5010940;28;20468;-53
2022/07/19 11:11:16;;;;;;;1.33;0.85;;;27.60;40.70;;;;;;5012084;28;20030;-53
2022/07/19 11:13:54;;;;;;;1.40;1.08;;;27.60;40.70;;;;;;5016184;28;20044;-53
2022/07/19 11:16:21;;;;;;;1.55;1.00;;;27.70;40.70;;;;;;5013441;28;20155;-51
2022/07/19 11:18:48;;;;;;;1.98;1.00;;;27.70;40.70;;;;;;5015947;28;20057;-52
2022/07/19 11:21:15;;;;;;;2.10;1.20;;;27.70;40.60;;;;;;5013454;28;20373;-50
2022/07/19 11:23:42;;;;;;;1.65;1.10;;;27.70;40.50;;;;;;5011403;28;20038;-55
2022/07/19 11:26:17;;;;;;;1.77;0.90;;;27.70;40.60;;;;;;5009913;28;20072;-56
2022/07/19 11:28:45;;;;;;;0.98;0.88;;;27.80;40.70;;;;;;5011373;28;20105;-58
2022/07/19 11:31:19;;;;;;;1.48;1.10;;;27.80;40.90;;;;;;5013964;28;20046;-55
2022/07/19 11:33:46;;;;;;;2.53;0.93;;;27.80;40.90;;;;;;5011723;28;20034;-58
2022/07/19 11:36:15;;;;;;;3.22;1.02;;;27.80;40.90;;;;;;5014129;28;20542;-58
2022/07/19 11:38:43;;;;;;;2.30;1.10;;;27.80;40.80;;;;;;5007560;28;20026;-58
2022/07/19 11:41:29;;;;;;;1.80;1.33;;;27.80;40.70;;;;;;5007154;28;20036;-58
2022/07/19 11:43:57;;;;;;;1.70;1.13;;;27.80;40.60;;;;;;5010093;28;20030;-56
2022/07/19 11:46:27;;;;;;;1.33;1.05;;;27.80;40.60;;;;;;5009993;28;20048;-57
2022/07/19 11:48:59;;;;;;;1.40;0.73;;;27.80;40.50;;;;;;5009582;28;20029;-58
2022/07/19 11:51:25;;;;;;;1.27;0.90;;;27.80;40.50;;;;;;5006641;28;20172;-58
2022/07/19 11:53:54;;;;;;;1.40;0.98;;;27.80;40.40;;;;;;5009026;28;20041;-58
2022/07/19 11:56:32;;;;;;;1.20;0.80;;;27.80;40.30;;;;;;5006457;28;20461;-57
2022/07/19 11:59:02;;;;;;;1.27;0.85;;;27.80;40.20;;;;;;5009049;28;20038;-58
2022/07/19 12:01:31;;;;;;;1.08;0.75;;;27.80;40.20;;;;;;5008886;28;20522;-52
2022/07/19 12:04:03;;;;;;;1.60;0.75;;;27.80;40.20;;;;;;5008477;28;20040;-56
2022/07/19 12:06:45;;;;;;;1.45;1.17;;;27.80;40.20;;;;;;5010960;28;20048;-54
2022/07/19 12:09:15;;;;;;;1.75;1.10;;;27.80;40.10;;;;;;5005882;28;20034;-54
2022/07/19 12:11:43;;;;;;;1.30;0.77;;;27.90;40.20;;;;;;5011764;28;20033;-55
2022/07/19 12:14:30;;;;;;;1.38;0.93;;;27.90;40.20;;;;;;5011510;28;20135;-52
2022/07/19 12:17:17;;;;;;;1.42;0.95;;;27.90;40.10;;;;;;5008646;28;20087;-57
2022/07/19 12:19:49;;;;;;;1.05;0.80;;;27.90;40.00;;;;;;5008199;28;20314;-56
2022/07/19 12:22:33;;;;;;;2.05;1.02;;;27.90;40.00;;;;;;5008531;28;20050;-56
2022/07/19 12:24:59;;;;;;;2.45;1.00;;;27.90;40.00;;;;;;5008688;28;20022;-58
2022/07/19 12:27:29;;;;;;;2.03;1.10;;;27.90;40.00;;;;;;5007684;28;20117;-58
2022/07/19 12:29:56;;;;;;;1.25;0.73;;;27.90;39.90;;;;;;5005053;28;20113;-56
2022/07/19 12:32:33;;;;;;;3.70;1.20;;;27.90;39.90;;;;;;5010696;28;20049;-57
2022/07/19 12:35:03;;;;;;;1.67;1.00;;;27.90;39.80;;;;;;5006207;28;20045;-55
2022/07/19 12:37:41;;;;;;;1.08;0.90;;;27.90;39.80;;;;;;5007047;28;22358;-51
2022/07/19 12:40:18;;;;;;;1.35;0.90;;;28.00;39.80;;;;;;5008312;28;20053;-57
2022/07/19 12:42:48;;;;;;;1.55;1.08;;;27.90;39.70;;;;;;5008354;28;20034;-58
2022/07/19 12:45:17;;;;;;;3.30;1.00;;;27.90;39.70;;;;;;5008938;28;20123;-57
2022/07/19 12:47:43;;;;;;;1.90;0.90;;;28.00;39.70;;;;;;5009161;28;20397;-54
2022/07/19 12:50:25;;;;;;;1.45;0.90;;;28.00;39.70;;;;;;5008337;28;20060;-59
2022/07/19 12:52:53;;;;;;;1.15;1.00;;;28.00;39.60;;;;;;5008255;28;20052;-55
2022/07/19 12:55:20;;;;;;;2.25;1.00;;;28.00;39.60;;;;;;5008554;28;20045;-55
2022/07/19 12:57:50;;;;;;;1.70;1.10;;;28.00;39.50;;;;;;5007030;28;20026;-58
2022/07/19 13:00:18;;;;;;;2.13;0.90;;;28.00;39.50;;;;;;5008585;28;20072;-55